Time;durP1;ratioP1;P1;durP2;ratioP2;P2;SDS_P1;SDS_P2;PMS_P1;PMS_P2;Temp;Humidity;BMP_temperature;BMP_pressure;BME280_temperature;BME280_humidity;BME280_pressure;Samples;Min_cycle;Max_cycle;Signal;HPM_P1;HPM_P2
2023/01/14 00:01:20;;;;;;;21.10;7.45;;;6.50;99.90;;;;;;4838591;29;20042;-75
2023/01/14 00:03:47;;;;;;;16.33;6.85;;;6.50;99.90;;;;;;4838362;29;20094;-76
2023/01/14 00:06:16;;;;;;;17.63;5.25;;;6.40;99.90;;;;;;4846621;29;20034;-75
2023/01/14 00:08:43;;;;;;;20.20;9.32;;;6.40;99.90;;;;;;4856816;29;20053;-75
2023/01/14 00:11:10;;;;;;;20.17;7.22;;;6.40;99.90;;;;;;4856470;29;20050;-75
2023/01/14 00:13:38;;;;;;;16.65;4.68;;;6.40;99.90;;;;;;4856887;29;20429;-75
2023/01/14 00:16:06;;;;;;;14.43;5.35;;;6.30;99.90;;;;;;4849338;29;20034;-75
2023/01/14 00:18:34;;;;;;;13.35;5.53;;;6.40;99.90;;;;;;4821828;29;20035;-75
2023/01/14 00:21:03;;;;;;;12.45;5.25;;;6.30;99.90;;;;;;4838310;29;20038;-75
2023/01/14 00:23:30;;;;;;;12.02;4.70;;;6.30;99.90;;;;;;4838270;29;20046;-75
2023/01/14 00:26:09;;;;;;;25.10;7.68;;;6.30;99.90;;;;;;4843472;29;20109;-75
2023/01/14 00:28:35;;;;;;;26.33;7.30;;;6.30;99.90;;;;;;4856227;29;20083;-75
2023/01/14 00:31:12;;;;;;;24.67;6.45;;;6.30;99.90;;;;;;4838682;29;20318;-75
2023/01/14 00:33:39;;;;;;;9.55;5.25;;;6.20;99.90;;;;;;4874947;29;20058;-75
2023/01/14 00:36:07;;;;;;;19.13;4.60;;;6.20;99.90;;;;;;4866902;29;20137;-75
2023/01/14 00:38:34;;;;;;;19.25;7.05;;;6.20;99.90;;;;;;4839732;29;20101;-75
2023/01/14 00:41:10;;;;;;;14.18;5.85;;;6.20;99.90;;;;;;4839856;29;20025;-76
2023/01/14 00:43:39;;;;;;;14.88;6.53;;;6.20;99.90;;;;;;4856387;29;20038;-75
2023/01/14 00:46:06;;;;;;;19.98;7.45;;;6.10;99.90;;;;;;4832968;29;20030;-75
2023/01/14 00:48:33;;;;;;;18.52;5.45;;;6.10;99.90;;;;;;4821358;29;20030;-75
2023/01/14 00:50:59;;;;;;;13.63;5.53;;;6.10;99.90;;;;;;4821466;29;20576;-75
2023/01/14 00:53:26;;;;;;;14.93;6.00;;;6.10;99.90;;;;;;4791209;29;20042;-75
2023/01/14 00:55:52;;;;;;;27.80;5.20;;;6.00;99.90;;;;;;4825409;29;20025;-76
2023/01/14 00:58:18;;;;;;;14.48;6.43;;;6.00;99.90;;;;;;4855903;29;20030;-75
2023/01/14 01:00:47;;;;;;;27.63;6.33;;;6.00;99.90;;;;;;4824740;29;20034;-75
2023/01/14 01:03:14;;;;;;;26.77;7.85;;;6.00;99.90;;;;;;4839233;29;20129;-75
2023/01/14 01:05:40;;;;;;;21.67;7.97;;;6.00;99.90;;;;;;4836663;29;20097;-75
2023/01/14 01:08:09;;;;;;;16.13;4.43;;;6.00;99.90;;;;;;4806013;29;20038;-75
2023/01/14 01:10:35;;;;;;;22.60;6.38;;;6.00;99.90;;;;;;4820908;29;20175;-75
2023/01/14 01:13:04;;;;;;;17.73;5.43;;;5.90;99.90;;;;;;4806126;29;20034;-75
2023/01/14 01:15:34;;;;;;;18.67;6.72;;;5.90;99.90;;;;;;4821921;29;20034;-75
2023/01/14 01:18:01;;;;;;;25.25;8.07;;;5.90;99.90;;;;;;4839332;29;20040;-76
2023/01/14 01:20:28;;;;;;;19.75;7.53;;;5.90;99.90;;;;;;4823886;29;20025;-76
2023/01/14 01:22:54;;;;;;;18.30;7.30;;;5.90;99.90;;;;;;4823986;29;20128;-76
2023/01/14 01:25:20;;;;;;;16.48;7.65;;;5.90;99.90;;;;;;4855412;29;20523;-75
2023/01/14 01:27:46;;;;;;;16.40;6.07;;;5.90;99.90;;;;;;4821396;29;20056;-76
2023/01/14 01:30:13;;;;;;;20.52;7.68;;;5.90;99.90;;;;;;4831027;29;20025;-75
2023/01/14 01:32:39;;;;;;;16.13;4.40;;;5.90;99.90;;;;;;4841881;29;20037;-75
2023/01/14 01:35:06;;;;;;;30.30;8.73;;;5.80;99.90;;;;;;4857251;29;20061;-75
2023/01/14 01:37:32;;;;;;;17.40;5.80;;;5.80;99.90;;;;;;4840670;29;20030;-75
2023/01/14 01:39:58;;;;;;;25.27;7.40;;;5.80;99.90;;;;;;4838912;29;20135;-75
2023/01/14 01:42:28;;;;;;;15.27;5.93;;;5.80;99.90;;;;;;4855143;29;20030;-75
2023/01/14 01:44:54;;;;;;;20.73;5.18;;;5.80;99.90;;;;;;4855160;29;20034;-75
2023/01/14 01:47:22;;;;;;;15.98;5.57;;;5.80;99.90;;;;;;4824542;29;20041;-75
2023/01/14 01:49:48;;;;;;;20.33;7.53;;;5.90;99.90;;;;;;4820421;29;20472;-75
2023/01/14 01:52:20;;;;;;;23.98;6.00;;;6.00;99.90;;;;;;4820174;29;20042;-75
2023/01/14 01:54:51;;;;;;;20.48;7.53;;;5.90;99.90;;;;;;4820382;29;20087;-75
2023/01/14 01:57:17;;;;;;;20.42;5.57;;;6.00;99.90;;;;;;4833348;29;20030;-75
2023/01/14 01:59:48;;;;;;;19.85;5.88;;;6.00;99.90;;;;;;4838586;29;20038;-75
2023/01/14 02:02:16;;;;;;;17.88;6.03;;;6.00;99.90;;;;;;4854947;29;20066;-75
2023/01/14 02:04:42;;;;;;;24.50;7.80;;;6.00;99.90;;;;;;4823136;29;20038;-75
2023/01/14 02:07:20;;;;;;;17.83;5.93;;;5.90;99.90;;;;;;4822991;29;20041;-75
2023/01/14 02:09:50;;;;;;;24.23;7.22;;;5.90;99.90;;;;;;4820168;29;20031;-76
2023/01/14 02:12:36;;;;;;;15.55;5.53;;;6.00;99.90;;;;;;4836610;29;20039;-75
2023/01/14 02:15:23;;;;;;;20.00;6.68;;;5.90;99.90;;;;;;4836619;29;20034;-75
2023/01/14 02:18:06;;;;;;;18.30;7.32;;;5.80;99.90;;;;;;4825068;29;20037;-75
2023/01/14 02:20:46;;;;;;;7.43;4.28;;;5.80;99.90;;;;;;4838435;29;20045;-76
2023/01/14 02:23:43;;;;;;;26.15;8.38;;;5.80;99.90;;;;;;4823316;29;20387;-75
2023/01/14 02:26:26;;;;;;;22.17;7.40;;;5.80;99.90;;;;;;4854112;29;20063;-75
2023/01/14 02:29:29;;;;;;;21.67;5.50;;;5.70;99.90;;;;;;4838203;29;20045;-75
2023/01/14 02:32:08;;;;;;;18.55;5.05;;;5.70;99.90;;;;;;4826241;29;20043;-76
2023/01/14 02:34:42;;;;;;;12.57;5.80;;;5.70;99.90;;;;;;4820203;29;20026;-76
2023/01/14 02:37:20;;;;;;;31.08;7.35;;;5.70;99.90;;;;;;4833707;29;20038;-75
2023/01/14 02:39:59;;;;;;;16.50;5.78;;;5.70;99.90;;;;;;4822870;29;20035;-75
2023/01/14 02:45:26;;;;;;;15.88;6.18;;;5.80;99.90;;;;;;4841693;29;20041;-75
2023/01/14 02:47:53;;;;;;;27.00;6.28;;;5.80;99.90;;;;;;4823454;29;20034;-76
2023/01/14 02:50:21;;;;;;;18.80;6.72;;;5.90;99.90;;;;;;4823520;29;20034;-75
2023/01/14 02:52:47;;;;;;;24.92;7.22;;;5.90;99.90;;;;;;4823294;29;20095;-75
2023/01/14 02:55:33;;;;;;;9.75;5.50;;;6.00;99.90;;;;;;4808321;29;20072;-75
2023/01/14 02:58:21;;;;;;;19.75;4.95;;;6.00;99.90;;;;;;4823272;29;20362;-75
2023/01/14 03:01:26;;;;;;;21.38;6.95;;;5.90;99.90;;;;;;4808214;29;20064;-75
2023/01/14 03:04:29;;;;;;;19.63;5.32;;;5.90;99.90;;;;;;4822928;29;20392;-76
2023/01/14 03:07:11;;;;;;;11.95;5.63;;;6.00;99.90;;;;;;4833780;29;20062;-75
2023/01/14 03:09:57;;;;;;;10.68;3.05;;;6.10;99.90;;;;;;4857969;29;20033;-75
2023/01/14 03:12:56;;;;;;;14.43;5.40;;;6.00;99.90;;;;;;4826311;29;20061;-75
2023/01/14 03:15:31;;;;;;;16.35;4.80;;;6.10;99.90;;;;;;4822884;29;20041;-75
2023/01/14 03:18:15;;;;;;;9.73;3.90;;;6.10;99.90;;;;;;4823008;29;20034;-76
2023/01/14 03:20:45;;;;;;;20.88;7.45;;;6.00;99.90;;;;;;4839238;29;20473;-75
2023/01/14 03:23:16;;;;;;;14.43;6.72;;;6.10;99.90;;;;;;4842956;29;20046;-75
2023/01/14 03:25:44;;;;;;;14.20;5.57;;;6.10;99.90;;;;;;4840913;29;20029;-75
2023/01/14 03:28:23;;;;;;;14.68;5.07;;;6.10;99.90;;;;;;4840842;29;20038;-75
2023/01/14 03:30:55;;;;;;;20.75;5.18;;;6.10;99.90;;;;;;4830426;29;20029;-76
2023/01/14 03:33:33;;;;;;;21.17;7.43;;;6.10;99.90;;;;;;4869374;29;20125;-75
2023/01/14 03:36:01;;;;;;;9.35;4.28;;;6.10;99.90;;;;;;4857504;29;20050;-75
2023/01/14 03:38:43;;;;;;;13.05;4.28;;;6.10;99.90;;;;;;4840614;29;20484;-75
2023/01/14 03:42:17;;;;;;;8.55;5.60;;;6.10;99.90;;;;;;4857230;29;20041;-75
2023/01/14 03:44:01;;;;;;;10.00;4.10;;;6.10;99.90;;;;;;4831323;29;20630;-75
2023/01/14 03:46:28;;;;;;;17.58;4.38;;;6.10;99.90;;;;;;4822414;29;20037;-75
2023/01/14 03:48:54;;;;;;;12.40;6.45;;;6.10;99.90;;;;;;4822763;29;20053;-75
2023/01/14 03:51:41;;;;;;;14.25;4.95;;;6.10;99.90;;;;;;4838380;29;20039;-75
2023/01/14 03:54:15;;;;;;;13.35;5.88;;;6.20;99.90;;;;;;4848339;29;20034;-75
2023/01/14 03:56:53;;;;;;;11.82;4.82;;;6.20;99.90;;;;;;4857085;29;20026;-76
2023/01/14 03:59:28;;;;;;;17.00;6.88;;;6.20;99.90;;;;;;4856970;29;20113;-76
2023/01/14 04:01:56;;;;;;;13.65;4.40;;;6.20;99.90;;;;;;4857009;29;20038;-75
2023/01/14 04:04:23;;;;;;;12.85;5.88;;;6.20;99.90;;;;;;4828668;29;20030;-75
2023/01/14 04:06:50;;;;;;;14.02;4.78;;;6.20;99.90;;;;;;4822275;29;20034;-75
2023/01/14 04:09:16;;;;;;;9.25;4.50;;;6.30;99.90;;;;;;4838417;29;20099;-75
2023/01/14 04:11:42;;;;;;;16.88;3.92;;;6.30;99.90;;;;;;4847803;29;20042;-76
2023/01/14 04:16:52;;;;;;;14.73;3.58;;;6.30;99.90;;;;;;4855527;29;20492;-75
2023/01/14 04:19:18;;;;;;;9.02;4.40;;;6.30;99.90;;;;;;4856845;29;20045;-76
2023/01/14 04:21:44;;;;;;;12.02;4.82;;;6.20;99.90;;;;;;4847175;29;20038;-75
2023/01/14 04:24:10;;;;;;;24.92;6.20;;;6.30;99.90;;;;;;4838188;29;20040;-75
2023/01/14 04:26:35;;;;;;;11.55;4.25;;;6.30;99.90;;;;;;4838162;29;20038;-75
2023/01/14 04:29:01;;;;;;;14.68;6.05;;;6.20;99.90;;;;;;4838159;29;20023;-75
2023/01/14 04:31:27;;;;;;;15.77;3.10;;;6.20;99.90;;;;;;4830804;29;20042;-75
2023/01/14 04:33:54;;;;;;;11.80;4.53;;;6.20;99.90;;;;;;4858286;29;20041;-75
2023/01/14 04:36:19;;;;;;;15.43;4.05;;;6.20;99.90;;;;;;4874727;29;20065;-76
2023/01/14 04:38:45;;;;;;;10.32;3.90;;;6.20;99.90;;;;;;4858037;29;20036;-75
2023/01/14 04:42:26;;;;;;;15.13;5.80;;;6.20;99.90;;;;;;4869396;29;20078;-75
2023/01/14 04:43:59;;;;;;;13.88;4.40;;;6.10;99.90;;;;;;4855893;29;20087;-75
2023/01/14 04:46:25;;;;;;;9.70;5.97;;;6.20;99.90;;;;;;4856090;29;20049;-75
2023/01/14 04:48:51;;;;;;;17.50;5.68;;;6.20;99.90;;;;;;4839602;29;20033;-74
2023/01/14 04:51:16;;;;;;;7.35;4.30;;;6.20;99.90;;;;;;4823130;29;20037;-75
2023/01/14 04:53:42;;;;;;;14.80;4.18;;;6.20;99.90;;;;;;4821137;29;20110;-76
2023/01/14 04:56:08;;;;;;;13.32;4.45;;;6.20;99.90;;;;;;4837645;29;20026;-75
2023/01/14 04:58:34;;;;;;;11.23;4.03;;;6.30;99.90;;;;;;4821323;29;20031;-75
2023/01/14 05:01:01;;;;;;;12.80;3.10;;;6.30;99.90;;;;;;4840116;29;20522;-75
2023/01/14 05:03:26;;;;;;;9.07;3.65;;;6.30;99.90;;;;;;4855458;29;20053;-75
2023/01/14 05:05:52;;;;;;;21.55;6.07;;;6.30;99.90;;;;;;4839210;29;20042;-74
2023/01/14 05:08:19;;;;;;;14.57;6.85;;;6.30;99.90;;;;;;4824120;29;20037;-75
2023/01/14 05:10:49;;;;;;;20.80;5.53;;;6.40;99.90;;;;;;4854592;29;20042;-75
2023/01/14 05:13:16;;;;;;;10.43;4.45;;;6.40;99.90;;;;;;4837625;29;20034;-75
2023/01/14 05:15:44;;;;;;;12.85;5.18;;;6.40;99.90;;;;;;4837365;29;20026;-75
2023/01/14 05:18:12;;;;;;;19.60;5.57;;;6.50;99.90;;;;;;4820924;29;20038;-75
2023/01/14 05:20:40;;;;;;;14.52;4.90;;;6.50;99.90;;;;;;4837577;29;20038;-75
2023/01/14 05:23:11;;;;;;;9.82;4.13;;;6.50;99.90;;;;;;4849944;29;20030;-75
2023/01/14 05:25:37;;;;;;;11.25;3.65;;;6.50;99.90;;;;;;4837298;29;20113;-75
2023/01/14 05:28:05;;;;;;;15.85;5.80;;;6.50;99.90;;;;;;4837329;29;20087;-75
2023/01/14 05:30:31;;;;;;;18.23;4.32;;;6.60;99.90;;;;;;4820967;29;20060;-75
2023/01/14 05:32:57;;;;;;;12.35;3.80;;;6.60;99.90;;;;;;4842999;29;20060;-75
2023/01/14 05:35:24;;;;;;;8.73;3.85;;;6.60;99.90;;;;;;4826405;29;20058;-76
2023/01/14 05:37:50;;;;;;;14.80;5.45;;;6.60;99.90;;;;;;4855455;29;20025;-75
2023/01/14 05:40:16;;;;;;;14.77;5.55;;;6.70;99.90;;;;;;4855104;29;20093;-75
2023/01/14 05:45:41;;;;;;;10.38;5.30;;;6.70;99.90;;;;;;4851704;29;20038;-75
2023/01/14 05:48:11;;;;;;;9.20;4.40;;;6.80;99.90;;;;;;4838374;29;20130;-75
2023/01/14 05:50:38;;;;;;;10.55;4.32;;;6.80;99.90;;;;;;4828144;29;20101;-76
2023/01/14 05:53:05;;;;;;;14.07;4.60;;;6.80;99.90;;;;;;4844250;29;20503;-76
2023/01/14 05:55:31;;;;;;;8.32;3.25;;;6.80;99.90;;;;;;4837931;29;20034;-75
2023/01/14 05:57:59;;;;;;;13.57;4.50;;;6.80;99.90;;;;;;4847010;29;20030;-75
2023/01/14 06:08:27;;;;;;;14.43;4.22;;;6.80;99.90;;;;;;4849534;29;20039;-75
2023/01/14 06:10:54;;;;;;;7.20;3.35;;;6.90;99.90;;;;;;4837612;29;20116;-75
2023/01/14 06:13:22;;;;;;;7.70;3.80;;;6.90;99.90;;;;;;4837985;29;20041;-76
2023/01/14 06:15:51;;;;;;;9.55;4.55;;;6.80;99.90;;;;;;4837713;29;20050;-76
2023/01/14 06:18:22;;;;;;;10.73;3.95;;;6.90;99.90;;;;;;4820457;29;20034;-75
2023/01/14 06:20:49;;;;;;;11.30;3.97;;;6.90;99.90;;;;;;4820115;29;20071;-76
2023/01/14 06:23:15;;;;;;;11.27;3.65;;;6.90;99.90;;;;;;4854481;29;20057;-75
2023/01/14 06:25:46;;;;;;;8.85;4.68;;;6.90;99.90;;;;;;4820371;29;20061;-75
2023/01/14 06:28:12;;;;;;;13.55;6.72;;;6.90;99.90;;;;;;4837934;29;20374;-76
2023/01/14 06:30:38;;;;;;;18.60;4.57;;;6.90;99.90;;;;;;4807496;29;20539;-75
2023/01/14 06:33:06;;;;;;;12.43;6.28;;;6.90;99.90;;;;;;4818322;29;20042;-75
2023/01/14 06:35:42;;;;;;;11.43;4.88;;;6.80;99.90;;;;;;4819971;29;20046;-75
2023/01/14 06:38:09;;;;;;;7.68;3.70;;;6.80;99.90;;;;;;4818005;29;20035;-76
2023/01/14 06:40:37;;;;;;;17.98;3.60;;;6.80;99.90;;;;;;4806848;29;20046;-76
2023/01/14 06:43:04;;;;;;;13.95;4.88;;;6.80;99.90;;;;;;4826427;29;20030;-75
2023/01/14 06:45:30;;;;;;;12.50;4.60;;;6.70;99.90;;;;;;4809475;29;20034;-75
2023/01/14 06:47:55;;;;;;;22.25;4.97;;;6.70;99.90;;;;;;4818570;29;20046;-75
2023/01/14 06:50:22;;;;;;;12.77;3.70;;;6.70;99.90;;;;;;4810860;29;20038;-76
2023/01/14 06:52:48;;;;;;;13.23;4.45;;;6.70;99.90;;;;;;4833487;29;20117;-76
2023/01/14 06:55:15;;;;;;;8.82;3.90;;;6.70;99.90;;;;;;4833340;29;20049;-75
2023/01/14 06:57:42;;;;;;;14.63;7.55;;;6.70;99.90;;;;;;4795163;29;20115;-76
2023/01/14 07:00:09;;;;;;;12.13;3.67;;;6.60;99.90;;;;;;4810686;29;20027;-76
2023/01/14 07:02:35;;;;;;;17.60;4.88;;;6.60;99.90;;;;;;4819125;29;20034;-76
2023/01/14 07:05:01;;;;;;;10.68;3.97;;;6.60;99.90;;;;;;4831185;29;20124;-75
2023/01/14 07:07:27;;;;;;;8.77;5.18;;;6.60;99.90;;;;;;4819185;29;20038;-75
2023/01/14 07:09:52;;;;;;;16.40;5.03;;;6.60;99.90;;;;;;4820246;29;20041;-75
2023/01/14 07:12:18;;;;;;;23.95;4.00;;;6.70;99.90;;;;;;4820431;29;20089;-75
2023/01/14 07:14:45;;;;;;;23.65;8.02;;;6.70;99.90;;;;;;4820330;29;20054;-76
2023/01/14 07:17:10;;;;;;;4.25;2.67;;;6.70;99.90;;;;;;4836999;29;20389;-76
2023/01/14 07:19:36;;;;;;;9.30;3.50;;;6.70;99.90;;;;;;4805274;29;20060;-76
2023/01/14 07:22:02;;;;;;;12.40;3.22;;;6.70;99.90;;;;;;4820416;29;20042;-76
2023/01/14 07:24:28;;;;;;;21.52;4.72;;;6.70;99.90;;;;;;4836922;29;20023;-75
2023/01/14 07:26:54;;;;;;;12.52;4.78;;;6.70;99.90;;;;;;4820130;29;20405;-75
2023/01/14 07:29:20;;;;;;;15.10;4.55;;;6.70;99.90;;;;;;4807983;29;20099;-76
2023/01/14 07:31:46;;;;;;;16.58;3.97;;;6.80;99.90;;;;;;4839421;29;20390;-76
2023/01/14 07:34:11;;;;;;;4.30;3.85;;;6.80;99.90;;;;;;4823335;29;20034;-75
2023/01/14 07:36:37;;;;;;;9.25;2.95;;;6.80;99.90;;;;;;4856785;29;20058;-76
2023/01/14 07:39:03;;;;;;;15.65;11.27;;;6.80;99.90;;;;;;4854638;29;20066;-76
2023/01/14 07:41:29;;;;;;;13.30;4.53;;;6.80;99.90;;;;;;4860322;29;20495;-76
2023/01/14 07:43:54;;;;;;;9.40;5.32;;;6.80;99.90;;;;;;4853483;29;20036;-77
2023/01/14 07:46:20;;;;;;;9.85;5.20;;;6.90;99.90;;;;;;4845760;29;20059;-75
2023/01/14 07:48:46;;;;;;;3.80;3.08;;;6.90;99.90;;;;;;4854905;29;20038;-76
2023/01/14 07:51:15;;;;;;;9.85;3.88;;;6.90;99.90;;;;;;4848200;29;20041;-76
2023/01/14 07:53:41;;;;;;;17.10;4.95;;;7.00;99.90;;;;;;4825728;29;20059;-75
2023/01/14 07:56:07;;;;;;;50.92;33.92;;;7.00;99.90;;;;;;4824837;29;20038;-76
2023/01/14 07:58:33;;;;;;;5.68;4.22;;;7.00;99.90;;;;;;4856157;29;20037;-76
2023/01/14 08:01:05;;;;;;;16.55;9.45;;;7.10;99.90;;;;;;4843930;29;20106;-76
2023/01/14 08:03:31;;;;;;;32.55;15.48;;;7.10;99.90;;;;;;4828521;29;20043;-75
2023/01/14 08:06:01;;;;;;;8.07;3.90;;;7.10;99.90;;;;;;4823725;29;20036;-76
2023/01/14 08:08:27;;;;;;;5.10;4.70;;;7.20;99.90;;;;;;4840041;29;20037;-75
2023/01/14 08:10:53;;;;;;;9.95;7.57;;;7.30;99.90;;;;;;4856259;29;20038;-76
2023/01/14 08:13:19;;;;;;;6.15;3.95;;;7.30;99.90;;;;;;4839337;29;20071;-75
2023/01/14 08:15:52;;;;;;;5.15;4.65;;;7.30;99.90;;;;;;4829195;29;20031;-75
2023/01/14 08:18:18;;;;;;;5.45;3.85;;;7.30;99.90;;;;;;4851665;29;20034;-76
2023/01/14 08:20:44;;;;;;;7.05;4.35;;;7.30;99.90;;;;;;4839731;29;20098;-76
2023/01/14 08:23:10;;;;;;;6.18;2.92;;;7.40;99.90;;;;;;4856257;29;20087;-75
2023/01/14 08:25:36;;;;;;;4.32;3.22;;;7.40;99.90;;;;;;4840180;29;20098;-77
2023/01/14 08:28:02;;;;;;;9.70;2.22;;;7.50;99.90;;;;;;4856461;29;20046;-75
2023/01/14 08:30:28;;;;;;;2.63;0.98;;;7.50;99.90;;;;;;4842371;29;20076;-75
2023/01/14 08:32:55;;;;;;;2.05;1.20;;;7.50;99.90;;;;;;4852365;29;20038;-75
2023/01/14 08:35:20;;;;;;;5.25;3.97;;;7.60;99.90;;;;;;4839573;29;20084;-75
2023/01/14 08:37:47;;;;;;;12.27;3.97;;;7.60;99.90;;;;;;4838107;29;20069;-75
2023/01/14 08:40:13;;;;;;;7.70;4.20;;;7.70;99.90;;;;;;4837688;29;20095;-75
2023/01/14 08:42:39;;;;;;;7.20;3.45;;;7.70;99.90;;;;;;4849568;29;20437;-75
2023/01/14 08:45:05;;;;;;;5.28;1.13;;;7.70;99.90;;;;;;4837830;29;20037;-76
2023/01/14 08:47:31;;;;;;;5.55;2.65;;;7.70;99.90;;;;;;4807915;29;20110;-76
2023/01/14 08:49:57;;;;;;;1.50;1.25;;;7.80;99.90;;;;;;4837859;29;20034;-75
2023/01/14 08:52:23;;;;;;;3.00;2.80;;;7.80;99.90;;;;;;4842154;29;20049;-75
2023/01/14 08:54:48;;;;;;;4.15;1.95;;;7.80;99.90;;;;;;4833352;29;20045;-75
2023/01/14 08:57:14;;;;;;;2.35;0.80;;;7.90;99.90;;;;;;4839796;29;20205;-75
2023/01/14 08:59:40;;;;;;;4.63;1.35;;;7.90;99.90;;;;;;4820738;29;20038;-75
2023/01/14 09:02:06;;;;;;;3.33;2.20;;;7.90;99.90;;;;;;4850641;29;20102;-76
2023/01/14 09:04:32;;;;;;;4.32;1.50;;;7.90;99.90;;;;;;4831421;29;20076;-76
2023/01/14 09:17:59;;;;;;;3.33;1.42;;;7.80;99.90;;;;;;4840080;29;20395;-76
2023/01/14 09:20:32;;;;;;;4.60;1.60;;;7.80;99.90;;;;;;4835328;29;20046;-76
2023/01/14 09:23:00;;;;;;;5.25;1.50;;;7.80;99.90;;;;;;4821774;29;20042;-75
2023/01/14 09:25:27;;;;;;;4.88;2.60;;;7.80;99.90;;;;;;4839993;29;20033;-75
2023/01/14 09:27:53;;;;;;;6.43;2.63;;;7.80;99.90;;;;;;4856074;29;20036;-76
2023/01/14 09:30:19;;;;;;;11.05;2.00;;;7.90;99.90;;;;;;4856192;29;20480;-77
2023/01/14 09:32:44;;;;;;;9.35;2.75;;;7.90;99.90;;;;;;4856239;29;20034;-76
2023/01/14 09:35:11;;;;;;;2.88;1.85;;;7.90;99.90;;;;;;4856297;29;20484;-76
2023/01/14 09:37:36;;;;;;;8.63;2.50;;;7.90;99.90;;;;;;4849289;29;20034;-76
2023/01/14 09:40:03;;;;;;;3.25;2.85;;;7.90;99.90;;;;;;4821951;29;20067;-76
2023/01/14 09:42:45;;;;;;;2.45;2.22;;;8.00;99.90;;;;;;4821767;29;20094;-76
2023/01/14 09:45:30;;;;;;;4.78;2.00;;;8.00;99.90;;;;;;4821819;29;20063;-76
2023/01/14 09:48:05;;;;;;;2.78;2.35;;;8.00;99.90;;;;;;4837905;29;20063;-76
2023/01/14 09:50:40;;;;;;;8.68;3.10;;;8.10;99.90;;;;;;4837613;29;20388;-76
2023/01/14 09:53:22;;;;;;;3.33;2.88;;;8.10;99.90;;;;;;4838221;29;20079;-76
2023/01/14 09:56:20;;;;;;;5.90;2.00;;;8.10;99.90;;;;;;4837947;29;20095;-76
2023/01/14 09:59:11;;;;;;;2.95;2.08;;;8.10;99.90;;;;;;4837350;29;20046;-76
2023/01/14 10:01:46;;;;;;;3.63;2.40;;;8.20;99.90;;;;;;4821396;29;20105;-76
2023/01/14 10:04:39;;;;;;;8.38;3.78;;;8.20;99.90;;;;;;4837956;29;20035;-76
2023/01/14 10:07:06;;;;;;;6.72;3.58;;;8.20;99.90;;;;;;4821373;29;20069;-76
2023/01/14 10:09:43;;;;;;;4.75;2.78;;;8.30;99.90;;;;;;4821436;29;20030;-77
2023/01/14 10:12:16;;;;;;;5.47;3.05;;;8.30;99.90;;;;;;4821630;29;20038;-76
2023/01/14 10:15:12;;;;;;;10.18;3.08;;;8.30;99.90;;;;;;4849236;29;20034;-76
2023/01/14 10:17:41;;;;;;;4.93;2.63;;;8.40;99.90;;;;;;4834477;29;20093;-76
2023/01/14 10:20:16;;;;;;;18.35;3.35;;;8.40;99.90;;;;;;4850272;29;20030;-76
2023/01/14 10:22:52;;;;;;;6.28;3.05;;;8.40;99.90;;;;;;4845443;29;20035;-76
2023/01/14 10:25:21;;;;;;;6.47;4.38;;;8.50;99.90;;;;;;4837968;29;20110;-76
2023/01/14 10:27:59;;;;;;;10.80;3.08;;;8.50;99.90;;;;;;4837995;29;20034;-76
2023/01/14 10:30:34;;;;;;;11.45;2.65;;;8.50;99.90;;;;;;4838971;29;20036;-76
2023/01/14 10:33:04;;;;;;;3.75;2.90;;;8.50;99.90;;;;;;4838017;29;20061;-76
2023/01/14 10:35:39;;;;;;;5.35;2.83;;;8.60;99.90;;;;;;4850284;29;20126;-76
2023/01/14 10:38:05;;;;;;;5.35;1.90;;;8.60;99.90;;;;;;4855519;29;20062;-76
2023/01/14 10:40:32;;;;;;;4.60;2.83;;;8.60;99.90;;;;;;4855024;29;20038;-76
2023/01/14 10:43:00;;;;;;;3.78;1.73;;;8.60;99.90;;;;;;4839120;29;20042;-76
2023/01/14 10:45:27;;;;;;;3.55;2.00;;;8.60;99.90;;;;;;4848429;29;20026;-75
2023/01/14 10:48:04;;;;;;;19.00;9.30;;;8.70;99.90;;;;;;4838274;29;20098;-75
2023/01/14 10:50:31;;;;;;;6.18;3.88;;;8.70;99.90;;;;;;4842910;29;20045;-76
2023/01/14 10:53:19;;;;;;;8.52;5.30;;;8.70;99.90;;;;;;4856007;29;20037;-76
2023/01/14 10:56:00;;;;;;;7.25;3.53;;;8.70;99.90;;;;;;4844490;29;20036;-76
2023/01/14 10:58:28;;;;;;;5.40;4.45;;;8.80;99.90;;;;;;4838779;29;20031;-76
2023/01/14 11:01:06;;;;;;;2.80;1.63;;;8.70;99.90;;;;;;4845180;29;20034;-76
2023/01/14 11:03:37;;;;;;;2.92;2.28;;;8.80;99.90;;;;;;4859221;29;20171;-76
2023/01/14 11:06:06;;;;;;;1.88;1.55;;;8.80;99.90;;;;;;4859841;29;20473;-76
2023/01/14 11:08:36;;;;;;;6.93;3.05;;;8.80;99.90;;;;;;4843505;29;20067;-75
2023/01/14 11:11:15;;;;;;;1.30;0.95;;;8.80;99.90;;;;;;4842786;29;20034;-75
2023/01/14 11:13:48;;;;;;;1.27;1.17;;;8.90;99.90;;;;;;4831462;29;20035;-76
2023/01/14 11:16:36;;;;;;;3.05;1.70;;;8.90;99.90;;;;;;4841373;29;20085;-75
2023/01/14 11:19:24;;;;;;;1.85;1.73;;;8.90;99.90;;;;;;4841192;29;20042;-75
2023/01/14 11:21:56;;;;;;;1.02;0.98;;;8.90;99.90;;;;;;4840686;29;20041;-75
2023/01/14 11:24:24;;;;;;;1.73;1.63;;;9.00;99.90;;;;;;4840710;29;20041;-75
2023/01/14 11:27:04;;;;;;;2.15;1.67;;;9.00;99.90;;;;;;4839815;29;20396;-75
2023/01/14 11:29:34;;;;;;;2.45;1.80;;;9.00;99.90;;;;;;4839909;29;20041;-76
2023/01/14 11:32:06;;;;;;;;;;;9.10;99.90;;;;;;4824114;29;20030;-76
2023/01/14 11:34:40;;;;;;;2.03;1.30;;;9.10;99.90;;;;;;4839926;29;19980;-76
2023/01/14 11:37:18;;;;;;;5.18;1.70;;;9.10;99.90;;;;;;4868565;29;20034;-75
2023/01/14 11:39:54;;;;;;;0.98;0.93;;;9.10;99.90;;;;;;4876370;29;20066;-76
2023/01/14 11:42:35;;;;;;;2.05;1.85;;;9.10;99.90;;;;;;4877062;29;20044;-75
2023/01/14 11:45:09;;;;;;;2.95;2.72;;;9.10;99.90;;;;;;4876755;29;20026;-76
2023/01/14 11:47:44;;;;;;;3.05;0.88;;;9.20;99.90;;;;;;4876830;29;20085;-76
2023/01/14 11:50:20;;;;;;;5.70;1.63;;;9.20;99.90;;;;;;4876637;29;20033;-76
2023/01/14 11:53:16;;;;;;;5.28;4.60;;;9.20;99.90;;;;;;4865190;29;20034;-76
2023/01/14 11:55:44;;;;;;;1.92;1.58;;;9.20;99.90;;;;;;4827894;29;20109;-76
2023/01/14 11:58:20;;;;;;;1.25;1.25;;;9.20;99.90;;;;;;4825015;29;20031;-76
2023/01/14 12:00:53;;;;;;;1.38;1.27;;;9.20;99.90;;;;;;4838155;29;20080;-75
2023/01/14 12:03:34;;;;;;;2.72;1.38;;;9.10;99.90;;;;;;4858866;29;20083;-76
2023/01/14 12:06:11;;;;;;;2.47;1.10;;;9.10;99.90;;;;;;4875404;29;20034;-75
2023/01/14 12:08:39;;;;;;;1.60;1.50;;;9.10;99.90;;;;;;4858903;29;20041;-76
2023/01/14 12:11:13;;;;;;;1.17;1.08;;;9.10;99.90;;;;;;4858772;29;20030;-76
2023/01/14 12:16:52;;;;;;;2.60;1.27;;;9.10;99.90;;;;;;4875244;29;20069;-76
2023/01/14 12:19:23;;;;;;;3.53;0.80;;;9.10;99.90;;;;;;4864424;29;20030;-75
2023/01/14 12:22:17;;;;;;;0.55;0.55;;;9.20;99.90;;;;;;4840002;29;20041;-76
2023/01/14 12:25:06;;;;;;;0.57;0.50;;;9.20;99.90;;;;;;4836632;29;20046;-76
2023/01/14 12:27:46;;;;;;;0.60;0.60;;;9.20;99.90;;;;;;4838153;29;20049;-75
2023/01/14 12:30:22;;;;;;;0.80;0.63;;;9.30;99.90;;;;;;4839707;29;20071;-75
2023/01/14 12:33:09;;;;;;;0.30;0.30;;;9.30;99.90;;;;;;4848670;29;20075;-76
2023/01/14 12:36:02;;;;;;;0.65;0.65;;;9.30;99.90;;;;;;4855675;29;20093;-75
2023/01/14 12:47:34;;;;;;;1.55;1.40;;;9.40;99.90;;;;;;4850128;29;20091;-75
2023/01/14 12:50:02;;;;;;;34.53;17.92;;;9.40;99.90;;;;;;4855879;29;20018;-75
2023/01/14 12:52:32;;;;;;;5.00;4.00;;;9.40;99.90;;;;;;4821471;29;20038;-76
2023/01/14 12:54:59;;;;;;;9.00;4.15;;;9.40;99.90;;;;;;4837721;29;20030;-76
2023/01/14 12:57:27;;;;;;;20.08;14.20;;;9.50;99.90;;;;;;4821303;29;20045;-75
2023/01/14 13:00:05;;;;;;;4.13;3.72;;;9.50;99.90;;;;;;4843021;29;20378;-76
2023/01/14 13:02:43;;;;;;;3.00;2.08;;;9.50;99.90;;;;;;4821189;29;20441;-75
2023/01/14 13:05:14;;;;;;;2.80;2.05;;;9.60;99.90;;;;;;4837764;29;20068;-75
2023/01/14 13:07:59;;;;;;;1.38;1.27;;;9.60;99.90;;;;;;4837742;29;20058;-75
2023/01/14 13:10:32;;;;;;;1.63;1.52;;;9.60;99.90;;;;;;4837416;29;20046;-75
2023/01/14 13:13:00;;;;;;;2.90;2.35;;;9.60;99.90;;;;;;4821138;29;20441;-75
2023/01/14 13:15:33;;;;;;;1.85;1.10;;;9.60;99.90;;;;;;4837706;29;20438;-75
2023/01/14 13:18:01;;;;;;;3.67;3.38;;;9.50;99.90;;;;;;4844762;29;20026;-76
2023/01/14 13:20:32;;;;;;;0.70;0.70;;;9.60;99.90;;;;;;4846050;29;20042;-76
2023/01/14 13:23:02;;;;;;;0.95;0.95;;;9.60;99.90;;;;;;4844270;29;20105;-76
2023/01/14 13:25:35;;;;;;;5.95;4.10;;;9.60;99.90;;;;;;4845015;29;20033;-76
2023/01/14 13:28:20;;;;;;;4.63;2.05;;;9.60;99.90;;;;;;4855577;29;20437;-76
2023/01/14 13:30:51;;;;;;;3.67;1.65;;;9.60;99.90;;;;;;4835353;29;20036;-76
2023/01/14 13:33:16;;;;;;;;;;;9.60;99.90;;;;;;4821111;29;20042;-76
2023/01/14 13:36:11;;;;;;;1.33;1.33;;;9.60;99.90;;;;;;4837437;29;19927;-76
2023/01/14 13:39:06;;;;;;;6.32;4.40;;;9.60;99.90;;;;;;4839168;29;20041;-76
2023/01/14 13:41:50;;;;;;;1.65;1.55;;;9.60;99.90;;;;;;4835425;29;20030;-76
2023/01/14 13:44:28;;;;;;;1.70;1.60;;;9.60;99.90;;;;;;4846676;29;20030;-76
2023/01/14 13:46:59;;;;;;;1.30;1.20;;;9.70;99.90;;;;;;4838003;29;20083;-76
2023/01/14 13:49:40;;;;;;;0.98;0.52;;;9.70;99.90;;;;;;4837955;29;20027;-75
2023/01/14 13:52:25;;;;;;;1.05;1.05;;;9.70;99.90;;;;;;4820628;29;20039;-76
2023/01/14 13:55:06;;;;;;;1.20;1.10;;;9.70;99.90;;;;;;4820953;29;20057;-76